Time;durP1;ratioP1;P1;durP2;ratioP2;P2;SDS_P1;SDS_P2;PMS_P1;PMS_P2;Temp;Humidity;BMP_temperature;BMP_pressure;BME280_temperature;BME280_humidity;BME280_pressure;Samples;Min_cycle;Max_cycle;Signal;HPM_P1;HPM_P2
2022/08/15 00:00:52;;;;;;;9.80;7.40;;;;;;;23.62;53.59;100251.66;5078395;28;20435;-72
2022/08/15 00:03:26;;;;;;;8.23;7.50;;;;;;;23.62;53.50;100252.50;5093606;28;20422;-73
2022/08/15 00:05:52;;;;;;;7.63;6.67;;;;;;;23.62;53.50;100244.50;5097551;28;20428;-72
2022/08/15 00:08:18;;;;;;;7.57;6.87;;;;;;;23.17;54.59;100251.28;5097410;28;20426;-72
2022/08/15 00:10:45;;;;;;;8.10;6.77;;;;;;;23.12;55.27;100255.94;5098192;28;20483;-72
2022/08/15 00:13:18;;;;;;;8.90;7.07;;;;;;;23.49;54.25;100241.66;5097741;28;20186;-70
2022/08/15 00:15:46;;;;;;;9.37;7.00;;;;;;;23.71;53.60;100240.50;5097107;28;20428;-69
2022/08/15 00:18:13;;;;;;;7.70;6.90;;;;;;;23.47;54.66;100238.19;5098146;28;20668;-68
2022/08/15 00:20:39;;;;;;;13.73;6.97;;;;;;;23.62;53.74;100228.53;5097968;28;20545;-68
2022/08/15 00:23:08;;;;;;;9.30;6.33;;;;;;;24.03;53.33;100229.94;5098052;28;20432;-68
2022/08/15 00:25:39;;;;;;;7.67;6.53;;;;;;;23.79;53.76;100225.00;5098596;28;20687;-68
2022/08/15 00:28:06;;;;;;;7.37;6.23;;;;;;;23.18;55.00;100240.56;5097989;28;20749;-68
2022/08/15 00:30:33;;;;;;;7.17;6.47;;;;;;;23.40;55.02;100225.31;5097351;28;20729;-68
2022/08/15 00:32:59;;;;;;;10.03;7.23;;;;;;;23.29;55.23;100233.84;5098231;28;20677;-68
2022/08/15 00:35:39;;;;;;;7.53;6.70;;;;;;;23.11;56.14;100228.50;5097918;28;20406;-68
2022/08/15 00:38:09;;;;;;;8.00;7.10;;;;;;;22.95;56.12;100224.88;5097961;28;20485;-68
2022/08/15 00:41:39;;;;;;;9.40;6.90;;;;;;;22.81;56.73;100222.91;5097785;28;20454;-68
2022/08/15 00:43:22;;;;;;;11.47;7.20;;;;;;;23.32;55.41;100212.41;5097725;28;20421;-68
2022/08/15 00:45:48;;;;;;;11.40;6.37;;;;;;;23.01;56.10;100211.28;5097929;28;20384;-68
2022/08/15 00:50:58;;;;;;;7.83;6.97;;;;;;;22.96;56.41;100208.00;5097859;28;20429;-67
2022/08/15 00:53:25;;;;;;;8.63;6.87;;;;;;;23.15;56.06;100205.28;5097677;28;20430;-69
2022/08/15 00:55:50;;;;;;;9.13;7.10;;;;;;;22.81;57.14;100206.97;5097756;28;20449;-68
2022/08/15 00:58:16;;;;;;;11.60;7.07;;;;;;;22.82;57.39;100201.56;5098036;28;20762;-69
2022/08/15 01:00:45;;;;;;;10.00;7.37;;;;;;;22.60;57.86;100204.44;5098096;28;20192;-69
2022/08/15 01:03:14;;;;;;;11.40;6.90;;;;;;;23.14;56.39;100201.78;5097408;28;20263;-68
2022/08/15 01:05:40;;;;;;;8.73;6.90;;;;;;;22.54;57.71;100210.94;5097731;28;20433;-71
2022/08/15 01:08:06;;;;;;;9.60;6.90;;;;;;;23.04;57.05;100205.81;5097398;28;20398;-71
2022/08/15 01:10:32;;;;;;;8.00;7.20;;;;;;;22.82;57.20;100200.72;5097104;28;20183;-69
2022/08/15 01:12:58;;;;;;;7.50;6.70;;;;;;;23.00;56.89;100196.25;5097486;28;20424;-70
2022/08/15 01:15:23;;;;;;;8.10;7.13;;;;;;;22.82;57.23;100198.91;5097576;28;20412;-70
2022/08/15 01:17:49;;;;;;;8.00;7.30;;;;;;;22.78;56.91;100201.81;5097568;28;20172;-69
2022/08/15 01:20:25;;;;;;;7.87;6.83;;;;;;;23.22;56.14;100196.06;5096662;28;20453;-68
2022/08/15 01:23:12;;;;;;;10.50;6.97;;;;;;;22.43;58.19;100202.59;5096977;28;20178;-67
2022/08/15 01:25:44;;;;;;;11.47;7.00;;;;;;;22.68;57.70;100196.97;5096833;28;20402;-68
2022/08/15 01:28:25;;;;;;;8.00;6.70;;;;;;;22.54;58.41;100191.44;5100458;28;20414;-66
2022/08/15 01:31:00;;;;;;;7.50;6.70;;;;;;;22.39;58.47;100182.44;5100480;28;20827;-68
2022/08/15 01:33:28;;;;;;;11.63;7.43;;;;;;;22.42;59.20;100189.41;5100937;28;20414;-69
2022/08/15 01:35:54;;;;;;;7.80;7.03;;;;;;;22.38;58.86;100183.41;5101152;28;20455;-68
2022/08/15 01:38:36;;;;;;;9.40;7.40;;;;;;;22.36;58.99;100178.13;5101753;28;20415;-69
2022/08/15 01:41:10;;;;;;;7.63;6.90;;;;;;;22.12;59.97;100177.50;5101387;28;20838;-69
2022/08/15 01:43:40;;;;;;;7.57;6.87;;;;;;;22.06;60.00;100179.59;5100834;28;20504;-67
2022/08/15 01:46:07;;;;;;;8.40;7.37;;;;;;;22.35;59.01;100179.09;5099959;28;20410;-68
2022/08/15 01:48:41;;;;;;;7.80;7.00;;;;;;;22.29;59.15;100178.50;5100012;28;20421;-66
2022/08/15 01:51:07;;;;;;;7.73;7.10;;;;;;;21.99;60.34;100185.19;5099828;28;20793;-68
2022/08/15 01:53:56;;;;;;;7.40;6.70;;;;;;;21.85;61.23;100180.53;5100406;28;20575;-67
2022/08/15 01:56:30;;;;;;;8.57;6.90;;;;;;;21.98;60.41;100174.66;5099918;28;20871;-68
2022/08/15 01:58:57;;;;;;;7.50;6.83;;;;;;;22.15;59.76;100174.72;5099867;28;20413;-67
2022/08/15 02:01:40;;;;;;;11.30;7.30;;;;;;;22.03;60.65;100175.28;5100429;28;20458;-67
2022/08/15 02:04:05;;;;;;;10.40;7.60;;;;;;;22.21;60.13;100166.44;5100368;28;20801;-70
2022/08/15 02:06:31;;;;;;;8.93;6.93;;;;;;;22.55;59.32;100156.00;5100356;28;20541;-68
2022/08/15 02:08:56;;;;;;;11.90;8.10;;;;;;;22.21;59.81;100150.50;5100514;28;20172;-68
2022/08/15 02:11:25;;;;;;;13.40;7.70;;;;;;;22.33;59.67;100149.06;5100305;28;20255;-68
2022/08/15 02:13:56;;;;;;;8.53;7.00;;;;;;;22.43;59.68;100144.16;5100544;28;20548;-67
2022/08/15 02:16:26;;;;;;;8.10;7.30;;;;;;;22.50;59.51;100145.59;5100136;28;20428;-69
2022/08/15 02:18:52;;;;;;;8.70;6.93;;;;;;;22.66;58.89;100140.41;5100116;28;20418;-68
2022/08/15 02:21:18;;;;;;;8.33;7.50;;;;;;;23.22;57.16;100137.56;5099956;28;20738;-66
2022/08/15 02:23:43;;;;;;;8.40;7.53;;;;;;;22.33;59.89;100140.25;5100027;28;20172;-69
2022/08/15 02:26:09;;;;;;;10.10;7.33;;;;;;;22.46;59.16;100144.03;5084340;28;20427;-68
2022/08/15 02:28:36;;;;;;;8.03;7.20;;;;;;;22.07;60.09;100145.00;5079723;28;20212;-66
2022/08/15 02:31:07;;;;;;;8.63;7.50;;;;;;;22.46;59.83;100143.16;5078943;28;20223;-68
2022/08/15 02:33:32;;;;;;;10.00;8.03;;;;;;;23.03;58.31;100140.31;5079091;28;20427;-68
2022/08/15 02:35:58;;;;;;;9.50;7.60;;;;;;;22.59;58.80;100135.47;5079767;28;20415;-68
2022/08/15 02:38:23;;;;;;;12.30;6.73;;;;;;;22.94;57.59;100140.78;5079376;28;20161;-70
2022/08/15 02:40:50;;;;;;;9.53;7.13;;;;;;;22.81;58.65;100141.41;5079975;28;20530;-67
2022/08/15 02:43:16;;;;;;;7.60;6.77;;;;;;;22.46;59.50;100138.72;5079441;28;20458;-67
2022/08/15 02:45:47;;;;;;;8.00;7.20;;;;;;;22.10;60.66;100144.84;5079612;28;20407;-68
2022/08/15 02:48:13;;;;;;;11.60;7.27;;;;;;;22.44;59.54;100135.28;5079737;28;20431;-68
2022/08/15 02:50:39;;;;;;;10.40;7.17;;;;;;;22.38;60.22;100148.88;5079365;28;20464;-67
2022/08/15 02:53:12;;;;;;;7.13;6.43;;;;;;;21.64;61.63;100150.53;5078574;28;20411;-67
2022/08/15 02:55:41;;;;;;;8.57;6.90;;;;;;;22.08;60.60;100145.88;5078355;28;20820;-66
2022/08/15 02:58:07;;;;;;;7.67;6.97;;;;;;;22.42;59.95;100142.47;5079220;28;21162;-67
2022/08/15 03:00:33;;;;;;;7.33;6.53;;;;;;;22.32;60.33;100139.34;5079550;28;20455;-68
2022/08/15 03:03:03;;;;;;;8.50;7.23;;;;;;;22.07;61.05;100141.47;5078997;28;20430;-68
2022/08/15 03:05:30;;;;;;;7.27;6.57;;;;;;;22.13;60.98;100147.34;5078402;28;20185;-67
2022/08/15 03:07:56;;;;;;;10.53;6.63;;;;;;;22.55;59.82;100140.06;5079260;28;20411;-67
2022/08/15 03:10:21;;;;;;;8.03;7.23;;;;;;;22.49;59.95;100148.34;5078899;28;20386;-67
2022/08/15 03:12:53;;;;;;;9.23;7.53;;;;;;;22.24;60.63;100146.84;5078859;28;20248;-69
2022/08/15 03:15:20;;;;;;;7.30;6.67;;;;;;;22.57;59.78;100145.28;5079373;28;20184;-67
2022/08/15 03:17:46;;;;;;;8.07;6.83;;;;;;;22.14;60.38;100143.78;5078624;28;20689;-67
2022/08/15 03:20:12;;;;;;;8.07;7.27;;;;;;;22.50;60.00;100139.41;5078520;28;20415;-67
2022/08/15 03:22:46;;;;;;;10.63;7.70;;;;;;;22.36;60.26;100151.56;5079555;28;20594;-67
2022/08/15 03:25:12;;;;;;;9.03;7.10;;;;;;;22.34;60.25;100144.63;5078543;28;20417;-69
2022/08/15 03:27:40;;;;;;;8.00;7.03;;;;;;;23.06;58.21;100129.50;5078754;28;20724;-68
2022/08/15 03:30:07;;;;;;;13.60;7.13;;;;;;;22.19;60.81;100131.16;5077710;28;20173;-68
2022/08/15 03:32:54;;;;;;;7.87;7.17;;;;;;;22.13;60.79;100136.75;5078634;28;20795;-68
2022/08/15 03:35:22;;;;;;;8.03;7.30;;;;;;;21.93;61.47;100139.50;5078450;28;20423;-67
2022/08/15 03:37:48;;;;;;;10.27;7.10;;;;;;;22.42;60.28;100150.44;5078492;28;20388;-67
2022/08/15 03:40:14;;;;;;;7.20;6.50;;;;;;;22.62;59.35;100143.25;5078236;28;20509;-67
2022/08/15 03:42:53;;;;;;;9.30;7.47;;;;;;;22.49;60.11;100143.03;5078333;28;20172;-67
2022/08/15 03:45:20;;;;;;;11.90;6.80;;;;;;;22.51;59.76;100136.69;5078388;28;20187;-67
2022/08/15 03:47:45;;;;;;;7.53;6.83;;;;;;;22.34;59.89;100141.97;5078353;28;20425;-67
2022/08/15 03:50:12;;;;;;;8.90;8.03;;;;;;;22.06;60.99;100129.16;5078071;28;20486;-67
2022/08/15 03:52:58;;;;;;;7.90;7.20;;;;;;;22.40;60.12;100131.06;5078361;28;20173;-67
2022/08/15 03:55:25;;;;;;;9.00;7.30;;;;;;;22.41;60.30;100131.91;5078418;28;20466;-68
2022/08/15 03:57:52;;;;;;;10.43;7.27;;;;;;;22.63;59.85;100129.06;5078226;28;20412;-68
2022/08/15 04:00:21;;;;;;;8.27;7.57;;;;;;;22.55;59.62;100132.09;5078091;28;20839;-69
2022/08/15 04:02:47;;;;;;;8.60;7.70;;;;;;;22.46;60.08;100136.06;5078743;28;20439;-68
2022/08/15 04:05:12;;;;;;;9.30;7.10;;;;;;;22.09;60.90;100140.47;5078108;28;20506;-68
2022/08/15 04:07:37;;;;;;;7.87;7.13;;;;;;;22.13;60.71;100142.03;5078279;28;20177;-68
2022/08/15 04:10:15;;;;;;;10.33;7.83;;;;;;;22.47;60.51;100135.13;5078595;28;20157;-68
2022/08/15 04:12:41;;;;;;;10.50;7.20;;;;;;;22.15;60.78;100128.69;5078139;28;20205;-69
2022/08/15 04:15:10;;;;;;;8.27;7.53;;;;;;;22.30;60.80;100130.63;5077965;28;20418;-68
2022/08/15 04:17:35;;;;;;;10.60;7.80;;;;;;;21.82;62.14;100134.69;5078052;28;20411;-67
2022/08/15 04:20:01;;;;;;;13.67;9.47;;;;;;;22.32;61.07;100133.19;5077998;28;20515;-68
2022/08/15 04:22:34;;;;;;;13.90;7.47;;;;;;;22.59;59.85;100122.19;5078588;28;20280;-67
2022/08/15 04:25:09;;;;;;;10.70;7.80;;;;;;;22.68;59.88;100127.88;5077015;28;20601;-67
2022/08/15 04:27:35;;;;;;;11.60;7.53;;;;;;;22.82;59.32;100127.16;5077875;28;20684;-68
2022/08/15 04:30:01;;;;;;;8.40;7.60;;;;;;;22.65;59.80;100132.47;5077951;28;20415;-68
2022/08/15 04:32:26;;;;;;;9.43;7.77;;;;;;;23.23;58.10;100127.78;5077971;28;20176;-67
2022/08/15 04:34:52;;;;;;;8.43;7.43;;;;;;;22.85;58.94;100129.69;5078238;28;20255;-68
2022/08/15 04:37:18;;;;;;;9.00;7.77;;;;;;;22.35;60.50;100128.63;5077892;28;20557;-67
2022/08/15 04:39:43;;;;;;;9.50;7.57;;;;;;;23.46;57.09;100124.75;5077808;28;20490;-67
2022/08/15 04:42:12;;;;;;;9.57;8.53;;;;;;;24.10;55.55;100111.50;5078171;28;20181;-68
2022/08/15 04:44:39;;;;;;;8.40;7.60;;;;;;;24.88;54.06;100119.44;5077591;28;20193;-68
2022/08/15 04:47:05;;;;;;;8.97;7.33;;;;;;;24.89;53.04;100118.44;5077827;28;20456;-68
2022/08/15 04:49:30;;;;;;;10.80;7.43;;;;;;;25.73;50.42;100110.69;5077364;28;20397;-67
2022/08/15 04:52:05;;;;;;;8.60;7.70;;;;;;;25.14;52.12;100108.97;5077865;28;20169;-68
2022/08/15 04:54:30;;;;;;;7.60;6.90;;;;;;;25.82;50.86;100110.09;5077320;28;20251;-68
2022/08/15 04:56:56;;;;;;;7.40;6.70;;;;;;;25.14;52.59;100116.09;5077958;28;20492;-68
2022/08/15 04:59:21;;;;;;;7.93;6.87;;;;;;;24.24;54.11;100117.84;5077660;28;20173;-68
2022/08/15 05:01:46;;;;;;;7.70;7.10;;;;;;;24.40;53.35;100126.66;5080912;28;20257;-69
2022/08/15 05:04:12;;;;;;;9.53;7.00;;;;;;;24.23;54.77;100116.13;5081734;28;20176;-69
2022/08/15 05:06:38;;;;;;;7.67;7.03;;;;;;;23.33;56.88;100119.22;5081406;28;20169;-68
2022/08/15 05:09:03;;;;;;;8.90;8.03;;;;;;;23.78;56.37;100113.28;5081222;28;20168;-68
2022/08/15 05:11:28;;;;;;;9.40;7.43;;;;;;;23.68;56.04;100110.28;5081413;28;20256;-68
2022/08/15 05:13:54;;;;;;;7.90;7.30;;;;;;;22.85;58.72;100115.50;5080846;28;20210;-68
2022/08/15 05:16:20;;;;;;;8.83;7.97;;;;;;;23.43;57.35;100108.09;5081135;28;20530;-68
2022/08/15 05:18:45;;;;;;;8.90;8.10;;;;;;;23.30;57.78;100105.22;5081557;28;20251;-68
2022/08/15 05:21:11;;;;;;;8.53;7.70;;;;;;;23.76;56.50;100097.41;5081052;28;20196;-69
2022/08/15 05:23:39;;;;;;;10.80;8.40;;;;;;;22.87;58.92;100103.03;5080840;28;20542;-67
2022/08/15 05:26:06;;;;;;;10.90;7.63;;;;;;;22.96;59.02;100089.25;5081350;28;20169;-68
2022/08/15 05:28:31;;;;;;;9.10;7.97;;;;;;;23.09;58.90;100093.91;5081025;28;20421;-69
2022/08/15 05:30:58;;;;;;;9.40;8.40;;;;;;;23.54;56.74;100087.97;5080946;28;20415;-68
2022/08/15 05:33:29;;;;;;;9.23;8.43;;;;;;;23.48;57.78;100090.94;5081001;28;20497;-68
2022/08/15 05:35:57;;;;;;;8.93;8.00;;;;;;;23.96;56.22;100090.97;5080845;28;20403;-68
2022/08/15 05:38:33;;;;;;;10.33;8.10;;;;;;;24.25;55.29;100095.56;5080729;28;20521;-68
2022/08/15 05:41:01;;;;;;;8.53;7.63;;;;;;;27.31;47.47;100084.16;5080733;28;20870;-67
2022/08/15 05:43:45;;;;;;;8.80;7.47;;;;;;;26.44;48.95;100082.03;5080533;28;20415;-68
2022/08/15 05:46:22;;;;;;;13.13;8.00;;;;;;;28.64;43.82;100077.16;5080630;28;20405;-68
2022/08/15 05:48:53;;;;;;;10.10;7.23;;;;;;;29.00;43.39;100067.22;5080538;28;20434;-68
2022/08/15 05:51:32;;;;;;;8.90;7.50;;;;;;;27.53;45.20;100078.97;5079797;28;20453;-68
2022/08/15 05:54:04;;;;;;;9.10;7.60;;;;;;;27.45;46.20;100084.03;5079466;28;20441;-68
2022/08/15 05:56:34;;;;;;;16.33;8.03;;;;;;;28.08;44.27;100067.91;5080327;28;20411;-69
2022/08/15 05:59:07;;;;;;;10.70;8.00;;;;;;;30.39;39.74;100070.28;5080183;28;20435;-68
2022/08/15 06:01:36;;;;;;;15.80;7.83;;;;;;;29.20;42.30;100070.97;5079501;28;20458;-69
2022/08/15 06:04:09;;;;;;;12.17;6.87;;;;;;;28.71;43.33;100075.69;5079365;28;20407;-69
2022/08/15 06:06:38;;;;;;;9.33;7.60;;;;;;;27.52;45.98;100082.63;5079646;28;20445;-68
2022/08/15 06:09:20;;;;;;;11.73;7.60;;;;;;;27.57;45.92;100079.63;5079339;28;20417;-68
2022/08/15 06:11:47;;;;;;;14.10;7.53;;;;;;;28.21;44.50;100078.53;5079465;28;20417;-69
2022/08/15 06:14:19;;;;;;;10.23;8.00;;;;;;;29.39;42.01;100071.25;5080067;28;20407;-67
2022/08/15 06:16:53;;;;;;;11.27;7.70;;;;;;;30.04;40.19;100070.56;5080157;28;20408;-68
2022/08/15 06:19:25;;;;;;;10.23;7.87;;;;;;;29.51;42.16;100069.41;5079832;28;20419;-68
2022/08/15 06:22:10;;;;;;;8.53;7.33;;;;;;;30.90;38.78;100065.97;5079831;28;20454;-68
2022/08/15 06:25:01;;;;;;;15.80;7.80;;;;;;;30.64;39.40;100062.81;5079731;28;20407;-68
2022/08/15 06:27:48;;;;;;;11.63;8.03;;;;;;;32.41;35.92;100054.28;5079456;28;20415;-68
2022/08/15 06:30:19;;;;;;;11.83;7.10;;;;;;;31.48;37.93;100059.13;5079907;28;20498;-69
2022/08/15 06:32:58;;;;;;;9.43;7.57;;;;;;;32.18;36.26;100061.84;5079790;28;20498;-69
2022/08/15 06:35:51;;;;;;;8.10;7.20;;;;;;;31.39;37.76;100054.56;5079018;28;20411;-68
2022/08/15 06:38:28;;;;;;;8.57;7.17;;;;;;;31.67;37.33;100065.59;5079664;28;20406;-69
2022/08/15 06:40:54;;;;;;;9.30;6.67;;;;;;;32.35;36.00;100062.97;5078820;28;20508;-68
2022/08/15 06:43:19;;;;;;;14.00;7.60;;;;;;;31.83;37.28;100060.50;5079346;28;20687;-68
2022/08/15 06:45:48;;;;;;;9.10;7.50;;;;;;;33.69;34.01;100059.25;5079449;28;20222;-69
2022/08/15 06:48:19;;;;;;;9.10;7.20;;;;;;;34.01;33.16;100052.53;5079170;28;20165;-69
2022/08/15 06:50:53;;;;;;;14.47;7.90;;;;;;;32.47;35.87;100060.94;5078576;28;20851;-70
2022/08/15 06:53:33;;;;;;;8.60;7.80;;;;;;;31.43;37.56;100055.97;5079114;28;20434;-70
2022/08/15 06:56:25;;;;;;;7.87;7.10;;;;;;;32.74;35.50;100051.28;5078570;28;20459;-69
2022/08/15 06:59:24;;;;;;;14.47;8.43;;;;;;;33.58;33.60;100055.78;5079346;28;20418;-69
2022/08/15 07:02:16;;;;;;;10.27;8.27;;;;;;;31.33;38.20;100053.25;5079000;28;20730;-69
2022/08/15 07:05:11;;;;;;;10.20;8.10;;;;;;;32.55;36.35;100052.16;5078269;28;20498;-70
2022/08/15 07:07:43;;;;;;;8.37;7.67;;;;;;;32.64;35.88;100051.28;5078954;28;20683;-69
2022/08/15 07:10:27;;;;;;;12.47;8.53;;;;;;;32.04;36.62;100040.66;5078259;28;20423;-69
2022/08/15 07:13:08;;;;;;;10.97;8.00;;;;;;;34.20;33.44;100038.00;5078907;28;20719;-69
2022/08/15 07:15:36;;;;;;;11.70;7.40;;;;;;;34.84;32.62;100026.97;5078376;28;20446;-69
2022/08/15 07:18:07;;;;;;;14.53;7.47;;;;;;;32.41;36.50;100038.09;5078742;28;20414;-69
2022/08/15 07:20:33;;;;;;;7.80;7.10;;;;;;;33.18;35.14;100037.19;5078558;28;20500;-69
2022/08/15 07:22:59;;;;;;;9.73;7.10;;;;;;;33.28;35.49;100042.59;5078786;28;20688;-69
2022/08/15 07:25:28;;;;;;;8.80;7.30;;;;;;;33.87;33.96;100032.28;5078086;28;20191;-69
2022/08/15 07:28:11;;;;;;;11.07;7.60;;;;;;;33.94;33.98;100033.38;5078567;28;20445;-72
2022/08/15 07:30:48;;;;;;;9.57;7.50;;;;;;;33.79;33.74;100033.06;5078799;28;20677;-72
2022/08/15 07:33:47;;;;;;;17.50;7.40;;;;;;;33.32;34.86;100034.03;5098384;28;20418;-69
2022/08/15 07:36:12;;;;;;;14.07;7.50;;;;;;;33.57;33.74;100037.00;5044029;28;20525;-69
2022/08/15 07:38:38;;;;;;;8.40;7.60;;;;;;;35.61;31.39;100026.97;5098657;28;20505;-68
2022/08/15 07:41:18;;;;;;;8.87;7.93;;;;;;;33.46;34.69;100039.94;5098402;28;20204;-66
2022/08/15 07:43:44;;;;;;;10.63;8.20;;;;;;;33.73;34.69;100041.72;5098338;28;20179;-70
2022/08/15 07:46:19;;;;;;;9.73;7.90;;;;;;;33.66;34.88;100035.25;5098466;28;20870;-70
2022/08/15 07:49:07;;;;;;;8.83;7.67;;;;;;;32.73;35.74;100044.16;5098455;28;20176;-69
2022/08/15 07:51:41;;;;;;;7.90;7.20;;;;;;;33.66;34.43;100043.34;5098470;28;20407;-69
2022/08/15 07:54:28;;;;;;;7.80;7.20;;;;;;;31.72;37.66;100045.31;5098305;28;20469;-69
2022/08/15 07:56:58;;;;;;;12.43;8.10;;;;;;;31.68;38.14;100040.34;5098474;28;20479;-69
2022/08/15 07:59:33;;;;;;;9.10;8.10;;;;;;;31.34;38.46;100043.38;5098488;28;20516;-69
2022/08/15 08:02:24;;;;;;;13.80;7.77;;;;;;;33.43;35.29;100046.47;5097591;28;20470;-68
2022/08/15 08:04:49;;;;;;;11.23;8.93;;;;;;;34.84;32.62;100033.22;5097645;28;20473;-67
2022/08/15 08:07:20;;;;;;;10.20;8.00;;;;;;;35.15;32.86;100026.47;5098044;28;20497;-67
2022/08/15 08:10:14;;;;;;;8.57;7.67;;;;;;;33.06;36.25;100041.94;5098286;28;20218;-67
2022/08/15 08:12:49;;;;;;;7.97;7.27;;;;;;;33.55;34.09;100041.72;5098152;28;20446;-69
2022/08/15 08:15:27;;;;;;;12.57;8.23;;;;;;;33.48;35.27;100046.03;5098104;28;20825;-69
2022/08/15 08:18:13;;;;;;;11.30;7.90;;;;;;;35.56;31.81;100040.16;5097599;28;20462;-67
2022/08/15 08:20:45;;;;;;;8.73;7.40;;;;;;;34.81;33.12;100036.25;5098221;28;20574;-68
2022/08/15 08:23:14;;;;;;;8.13;7.50;;;;;;;34.95;32.19;100029.41;5097306;28;20442;-66
2022/08/15 08:26:31;;;;;;;7.90;7.20;;;;;;;34.84;32.38;100040.53;5098089;28;20461;-67
2022/08/15 08:29:02;;;;;;;12.00;7.40;;;;;;;34.30;33.56;100038.78;5000308;28;20425;-67
2022/08/15 08:31:38;;;;;;;9.80;8.10;;;;;;;32.45;36.18;100044.06;5016653;28;20702;-68
2022/08/15 08:34:29;;;;;;;9.27;7.80;;;;;;;35.66;31.38;100026.47;5070442;28;20410;-66
2022/08/15 08:36:55;;;;;;;8.33;7.57;;;;;;;35.50;31.87;100030.84;5102008;28;20410;-69
2022/08/15 08:39:32;;;;;;;9.70;7.60;;;;;;;33.01;35.26;100041.53;5101888;28;20673;-68
2022/08/15 08:42:17;;;;;;;10.30;7.60;;;;;;;34.53;33.44;100035.56;5101969;28;20286;-67
2022/08/15 08:44:50;;;;;;;8.47;7.60;;;;;;;35.14;31.93;100030.16;5101776;28;20489;-64
2022/08/15 08:47:30;;;;;;;13.10;8.33;;;;;;;34.33;33.87;100045.72;5101438;28;20414;-67
2022/08/15 08:50:29;;;;;;;8.03;7.27;;;;;;;34.23;33.29;100033.13;5101863;28;20417;-66
2022/08/15 08:53:06;;;;;;;8.37;7.57;;;;;;;34.27;33.63;100038.22;5067613;28;20457;-66
2022/08/15 08:55:48;;;;;;;9.13;8.03;;;;;;;34.83;32.87;100034.28;5101954;28;20878;-66
2022/08/15 08:58:36;;;;;;;10.90;7.40;;;;;;;34.16;33.92;100033.91;5101761;28;20417;-66
2022/08/15 09:01:03;;;;;;;8.70;7.87;;;;;;;35.96;31.27;100019.59;5101671;28;20460;-65
2022/08/15 09:03:37;;;;;;;8.93;7.93;;;;;;;34.77;31.74;100028.63;5101595;28;20409;-67
2022/08/15 09:06:03;;;;;;;10.20;7.87;;;;;;;33.22;34.59;100036.75;5100928;28;20433;-65
2022/08/15 09:08:51;;;;;;;11.00;7.40;;;;;;;35.46;31.38;100032.19;5101511;28;20884;-66
2022/08/15 09:11:51;;;;;;;11.73;7.93;;;;;;;33.81;34.17;100039.16;5100917;28;20564;-64
2022/08/15 09:14:28;;;;;;;11.23;7.60;;;;;;;32.35;36.06;100030.59;5057763;28;20460;-66
2022/08/15 09:16:57;;;;;;;9.60;8.60;;;;;;;34.38;33.09;100019.03;5100638;28;20455;-67
2022/08/15 09:19:27;;;;;;;8.77;7.97;;;;;;;34.31;33.00;100020.69;5100475;28;20402;-65
2022/08/15 09:21:53;;;;;;;8.47;7.67;;;;;;;34.20;33.27;100033.41;5100499;28;20458;-66
2022/08/15 09:24:20;;;;;;;9.30;8.37;;;;;;;35.56;31.42;100016.63;5100393;28;20433;-66
2022/08/15 09:27:16;;;;;;;14.83;7.90;;;;;;;36.54;29.86;100012.28;5100759;28;20406;-65
2022/08/15 09:29:46;;;;;;;9.00;8.20;;;;;;;33.79;33.97;100019.53;5098883;28;21048;-66
2022/08/15 09:32:18;;;;;;;11.33;8.00;;;;;;;34.15;33.53;100018.66;5100391;28;20833;-66
2022/08/15 09:34:52;;;;;;;9.00;8.10;;;;;;;34.17;33.42;100025.63;5100160;28;20402;-66
2022/08/15 09:37:34;;;;;;;8.33;7.40;;;;;;;34.80;32.60;100012.03;5100881;28;20462;-66
2022/08/15 09:40:29;;;;;;;8.87;7.90;;;;;;;33.94;32.61;100008.16;5100642;28;20405;-67
2022/08/15 09:43:17;;;;;;;10.60;8.37;;;;;;;36.26;29.69;100014.50;5028396;28;20751;-67
2022/08/15 09:46:03;;;;;;;10.50;7.40;;;;;;;37.01;29.10;100007.94;5099866;28;20394;-67
2022/08/15 09:48:53;;;;;;;8.33;7.27;;;;;;;35.99;29.96;100010.28;5099893;28;20479;-66
2022/08/15 09:51:42;;;;;;;8.70;7.83;;;;;;;37.19;28.77;100012.28;5100535;28;20393;-66
2022/08/15 09:54:28;;;;;;;14.00;7.83;;;;;;;36.60;29.29;100008.03;5100276;28;20489;-66
2022/08/15 09:57:21;;;;;;;8.77;7.60;;;;;;;35.27;31.00;100016.19;5099829;28;20428;-66
2022/08/15 10:00:04;;;;;;;9.03;7.93;;;;;;;36.34;30.18;100000.94;5100826;28;20481;-65
2022/08/15 10:02:32;;;;;;;10.43;7.77;;;;;;;37.06;28.88;99993.81;5100290;28;20457;-65
2022/08/15 10:04:57;;;;;;;9.20;8.20;;;;;;;35.83;31.20;100002.97;5100212;28;20868;-66
2022/08/15 10:07:30;;;;;;;8.43;7.63;;;;;;;36.15;30.36;99996.69;5100349;28;20409;-66
2022/08/15 10:09:59;;;;;;;9.40;8.30;;;;;;;36.62;30.12;100002.44;5100321;28;20479;-66
2022/08/15 10:12:24;;;;;;;8.97;8.07;;;;;;;36.37;30.35;99986.19;5100616;28;20413;-65
2022/08/15 10:14:52;;;;;;;8.17;7.37;;;;;;;36.11;30.07;99994.50;5100209;28;20406;-65
2022/08/15 10:17:36;;;;;;;8.53;7.73;;;;;;;37.14;28.93;99991.06;5099986;28;20541;-66
2022/08/15 10:20:14;;;;;;;8.60;7.80;;;;;;;34.76;32.26;99984.41;5099269;28;20551;-65
2022/08/15 10:22:48;;;;;;;11.80;8.03;;;;;;;35.30;30.64;99978.75;5100011;28;20454;-66
2022/08/15 10:25:16;;;;;;;9.37;8.20;;;;;;;36.22;30.06;99981.44;5099189;28;20531;-65
2022/08/15 10:27:56;;;;;;;10.90;8.53;;;;;;;36.35;30.47;99982.81;5099775;28;20410;-66
2022/08/15 10:30:26;;;;;;;8.53;7.73;;;;;;;36.24;30.27;99975.84;5099672;28;20542;-66
2022/08/15 10:32:53;;;;;;;9.10;8.20;;;;;;;36.04;30.63;99980.78;5100181;28;20470;-64
2022/08/15 10:35:42;;;;;;;11.93;8.47;;;;;;;36.45;30.28;99975.31;5099691;28;20416;-66
2022/08/15 10:38:10;;;;;;;8.77;8.00;;;;;;;35.51;31.20;99978.31;5099652;28;20672;-65
2022/08/15 10:41:03;;;;;;;8.77;8.07;;;;;;;36.16;30.15;99967.72;5098598;28;20421;-66
2022/08/15 10:43:32;;;;;;;9.00;8.20;;;;;;;36.03;30.89;99962.78;5098593;28;20425;-66
2022/08/15 10:46:18;;;;;;;8.97;7.67;;;;;;;34.79;31.93;99962.47;5099491;28;20433;-66
2022/08/15 10:49:09;;;;;;;8.03;7.33;;;;;;;36.01;30.79;99965.69;5099441;28;20425;-65
2022/08/15 10:51:38;;;;;;;8.83;7.70;;;;;;;35.21;30.99;99960.78;5099335;28;20433;-66
2022/08/15 10:54:24;;;;;;;9.63;7.80;;;;;;;35.38;30.45;99961.69;5099225;28;20729;-66
2022/08/15 10:56:54;;;;;;;8.83;8.10;;;;;;;33.03;34.26;99966.63;5099427;28;20433;-67
2022/08/15 10:59:23;;;;;;;8.90;8.20;;;;;;;34.52;32.28;99960.78;5099166;28;20456;-67
2022/08/15 11:01:51;;;;;;;9.43;8.53;;;;;;;35.49;31.11;99964.06;5098426;28;20485;-66
2022/08/15 11:04:27;;;;;;;9.67;8.77;;;;;;;33.21;34.72;99970.22;5099083;28;20417;-67
2022/08/15 11:06:54;;;;;;;9.10;8.40;;;;;;;34.65;32.56;99961.19;5098437;28;20753;-67
2022/08/15 11:09:21;;;;;;;9.20;8.30;;;;;;;34.63;31.93;99957.81;5099227;28;20414;-68
2022/08/15 11:11:54;;;;;;;9.43;8.63;;;;;;;34.87;31.64;99967.94;5099553;28;20550;-66
2022/08/15 11:14:28;;;;;;;12.90;9.00;;;;;;;36.23;30.04;99958.69;5098350;28;20414;-67
2022/08/15 11:16:54;;;;;;;9.80;8.90;;;;;;;34.28;32.73;99969.56;5099191;28;20790;-65
2022/08/15 11:19:24;;;;;;;8.77;8.07;;;;;;;35.34;31.36;99961.16;5098875;28;20414;-67
2022/08/15 11:21:54;;;;;;;7.73;7.03;;;;;;;35.35;30.49;99968.28;5098937;28;20491;-66
2022/08/15 11:24:30;;;;;;;9.73;7.90;;;;;;;35.32;30.33;99962.34;5098238;28;20418;-66
2022/08/15 11:27:23;;;;;;;8.50;7.80;;;;;;;35.56;30.33;99964.25;5098774;28;20424;-66
2022/08/15 11:29:50;;;;;;;8.80;8.00;;;;;;;34.65;31.23;99961.19;5098670;28;20511;-65
2022/08/15 11:32:32;;;;;;;9.27;8.47;;;;;;;36.09;29.73;99956.69;5098864;28;20424;-66
2022/08/15 11:35:00;;;;;;;8.90;8.20;;;;;;;35.62;30.22;99950.03;5098632;28;20836;-65
2022/08/15 11:37:31;;;;;;;9.30;8.40;;;;;;;34.93;30.81;99955.59;5098649;28;20798;-65
2022/08/15 11:40:25;;;;;;;8.20;7.50;;;;;;;34.69;30.32;99954.44;5097838;28;20810;-66
2022/08/15 11:42:53;;;;;;;15.13;8.70;;;;;;;36.23;29.42;99947.84;5098631;28;20663;-66
2022/08/15 11:45:23;;;;;;;9.50;7.00;;;;;;;36.29;29.14;99946.31;5097697;28;20418;-65
2022/08/15 11:47:55;;;;;;;8.03;7.43;;;;;;;35.41;30.50;99948.66;5098428;28;20424;-67
2022/08/15 11:50:26;;;;;;;8.97;8.07;;;;;;;35.12;30.79;99940.94;5098480;28;20425;-66
2022/08/15 11:52:55;;;;;;;8.70;7.93;;;;;;;35.22;30.92;99941.66;5098448;28;20425;-66